Time;durP1;ratioP1;P1;durP2;ratioP2;P2;SDS_P1;SDS_P2;PMS_P1;PMS_P2;Temp;Humidity;BMP_temperature;BMP_pressure;BME280_temperature;BME280_humidity;BME280_pressure;Samples;Min_cycle;Max_cycle;Signal;HPM_P1;HPM_P2
2022/04/05 00:01:40;;;;;;;7.22;6.63;;;4.80;99.90;;;;;;5080792;28;20386;-86
2022/04/05 00:04:06;;;;;;;7.03;6.53;;;4.80;99.90;;;;;;5098352;28;20418;-86
2022/04/05 00:06:31;;;;;;;6.60;6.00;;;4.80;99.90;;;;;;5082890;28;20409;-85
2022/04/05 00:08:57;;;;;;;7.10;6.50;;;4.70;99.90;;;;;;5099503;28;20381;-86
2022/04/05 00:11:23;;;;;;;7.00;6.50;;;4.70;99.90;;;;;;5098752;28;20386;-86
2022/04/05 00:13:48;;;;;;;7.53;6.82;;;4.70;99.90;;;;;;5098275;28;20386;-85
2022/04/05 00:16:14;;;;;;;7.72;6.93;;;4.70;99.90;;;;;;5098394;28;20381;-86
2022/04/05 00:18:40;;;;;;;7.33;6.73;;;4.80;99.90;;;;;;5079548;28;20887;-86
2022/04/05 00:21:06;;;;;;;7.67;7.07;;;4.60;99.90;;;;;;5097899;28;20378;-86
2022/04/05 00:23:32;;;;;;;7.50;7.00;;;4.60;99.90;;;;;;5099599;28;20386;-85
2022/04/05 00:25:57;;;;;;;7.50;6.85;;;4.50;99.90;;;;;;5081847;28;20458;-85
2022/04/05 00:28:23;;;;;;;8.10;7.37;;;4.50;99.90;;;;;;5100632;28;20406;-86
2022/04/05 00:30:49;;;;;;;8.80;8.00;;;4.50;99.90;;;;;;5100142;28;20389;-86
2022/04/05 00:33:14;;;;;;;8.30;7.60;;;4.40;99.90;;;;;;5104084;28;20398;-85
2022/04/05 00:35:40;;;;;;;7.97;7.30;;;4.30;99.90;;;;;;5106514;28;20946;-86
2022/04/05 00:38:07;;;;;;;7.72;7.13;;;4.30;99.90;;;;;;5099760;28;20464;-86
2022/04/05 00:40:33;;;;;;;8.13;7.43;;;4.40;99.90;;;;;;5107462;28;20382;-86
2022/04/05 00:43:00;;;;;;;8.20;7.60;;;4.40;99.90;;;;;;5108524;28;20393;-86
2022/04/05 00:45:25;;;;;;;7.83;7.23;;;4.50;99.90;;;;;;5105751;28;20473;-86
2022/04/05 00:47:51;;;;;;;8.05;7.35;;;4.40;99.90;;;;;;5089159;28;20922;-86
2022/04/05 00:50:22;;;;;;;8.43;7.63;;;4.50;99.90;;;;;;5106372;28;20451;-86
2022/04/05 00:52:49;;;;;;;8.13;7.53;;;4.50;99.90;;;;;;5086982;28;20390;-86
2022/04/05 00:55:22;;;;;;;7.40;6.82;;;4.50;99.90;;;;;;5105157;28;20761;-86
2022/04/05 00:57:50;;;;;;;8.10;7.35;;;4.40;99.90;;;;;;5086611;28;20820;-86
2022/04/05 01:00:16;;;;;;;7.57;6.88;;;4.60;99.90;;;;;;5104243;28;20424;-86
2022/04/05 01:02:46;;;;;;;7.82;7.20;;;4.50;99.90;;;;;;5104359;28;20472;-86
2022/04/05 01:05:18;;;;;;;7.28;6.70;;;4.50;99.90;;;;;;5106525;28;20504;-86
2022/04/05 01:07:47;;;;;;;7.90;7.18;;;4.50;99.90;;;;;;5104481;28;20411;-86
2022/04/05 01:10:13;;;;;;;8.18;7.47;;;4.50;99.90;;;;;;5085994;28;20512;-86
2022/04/05 01:12:39;;;;;;;8.40;7.70;;;4.40;99.90;;;;;;5104067;28;20378;-86
2022/04/05 01:15:05;;;;;;;8.40;7.65;;;4.40;99.90;;;;;;5104474;28;20476;-86
2022/04/05 01:17:33;;;;;;;8.43;7.72;;;4.40;99.90;;;;;;5103799;28;20389;-86
2022/04/05 01:20:00;;;;;;;8.45;7.75;;;4.40;99.90;;;;;;5105267;28;20389;-86
2022/04/05 01:22:28;;;;;;;8.32;7.57;;;4.40;99.90;;;;;;5105039;28;20895;-86
2022/04/05 01:24:54;;;;;;;8.27;7.65;;;4.50;99.90;;;;;;5104826;28;20479;-86
2022/04/05 01:27:19;;;;;;;8.73;7.93;;;4.40;99.90;;;;;;5085453;28;20787;-86
2022/04/05 01:29:47;;;;;;;8.47;7.83;;;4.40;99.90;;;;;;5104215;28;20374;-86
2022/04/05 01:32:13;;;;;;;9.10;8.20;;;4.40;99.90;;;;;;5104025;28;20450;-86
2022/04/05 01:34:39;;;;;;;9.05;8.18;;;4.60;99.90;;;;;;5103667;28;20389;-86
2022/04/05 01:37:08;;;;;;;9.30;8.53;;;4.30;99.90;;;;;;5103653;28;21003;-86
2022/04/05 01:39:37;;;;;;;9.80;8.90;;;4.30;99.90;;;;;;5102825;28;20982;-85
2022/04/05 01:42:12;;;;;;;9.70;9.00;;;5.50;99.90;;;;;;5102914;28;20994;-86
2022/04/05 01:44:39;;;;;;;9.13;8.38;;;4.30;99.90;;;;;;5102485;28;20944;-86
2022/04/05 01:47:10;;;;;;;9.23;8.43;;;4.30;99.90;;;;;;5101200;28;20403;-86
2022/04/05 01:49:37;;;;;;;10.10;9.20;;;4.30;99.90;;;;;;5093857;28;20432;-86
2022/04/05 01:52:04;;;;;;;9.23;8.40;;;4.20;99.90;;;;;;5096242;28;20378;-86
2022/04/05 01:54:29;;;;;;;8.90;8.15;;;4.30;99.90;;;;;;5103123;28;20378;-84
2022/04/05 01:56:55;;;;;;;9.83;8.97;;;4.90;99.90;;;;;;5106109;28;20406;-85
2022/04/05 01:59:23;;;;;;;8.98;8.18;;;4.30;99.90;;;;;;5102698;28;20389;-86
2022/04/05 02:01:49;;;;;;;8.90;8.20;;;4.30;99.90;;;;;;5108574;28;20473;-85
2022/04/05 02:04:16;;;;;;;9.18;8.38;;;4.40;99.90;;;;;;5103750;28;20405;-86
2022/04/05 02:06:43;;;;;;;9.10;8.38;;;4.40;99.90;;;;;;5104288;28;20378;-86
2022/04/05 02:09:10;;;;;;;9.00;8.30;;;4.30;99.90;;;;;;5101786;28;20394;-86
2022/04/05 02:11:37;;;;;;;8.63;8.00;;;4.30;99.90;;;;;;5098437;28;20397;-87
2022/04/05 02:14:03;;;;;;;8.77;7.88;;;4.30;99.90;;;;;;5112727;28;20380;-86
2022/04/05 02:16:29;;;;;;;9.07;8.25;;;4.40;99.90;;;;;;5104549;28;20381;-86
2022/04/05 02:18:54;;;;;;;8.98;8.18;;;4.30;99.90;;;;;;5101569;28;20408;-86
2022/04/05 02:21:20;;;;;;;9.10;8.30;;;4.50;99.90;;;;;;5103508;28;20382;-86
2022/04/05 02:23:46;;;;;;;9.10;8.30;;;4.30;99.90;;;;;;5103483;28;20379;-86
2022/04/05 02:26:12;;;;;;;8.40;7.70;;;4.40;99.90;;;;;;5102153;28;20492;-86
2022/04/05 02:28:38;;;;;;;9.00;8.10;;;5.10;99.90;;;;;;5102997;28;20382;-86
2022/04/05 02:31:03;;;;;;;9.27;8.48;;;4.40;99.90;;;;;;5102528;28;20745;-86
2022/04/05 02:33:29;;;;;;;8.65;7.90;;;4.40;99.90;;;;;;5102879;28;20436;-86
2022/04/05 02:35:55;;;;;;;8.57;7.80;;;4.40;99.90;;;;;;5103608;28;20390;-86
2022/04/05 02:38:20;;;;;;;8.77;8.00;;;4.50;99.90;;;;;;5101906;28;20390;-87
2022/04/05 02:40:46;;;;;;;9.13;8.23;;;4.40;99.90;;;;;;5102102;28;20485;-86
2022/04/05 02:43:13;;;;;;;9.02;8.23;;;4.40;99.90;;;;;;5101198;28;20389;-86
2022/04/05 02:45:38;;;;;;;8.83;8.07;;;4.40;99.90;;;;;;5100548;28;20954;-86
2022/04/05 02:48:04;;;;;;;8.63;7.82;;;4.40;99.90;;;;;;5102342;28;20377;-86
2022/04/05 02:50:30;;;;;;;9.15;8.25;;;4.40;99.90;;;;;;5101477;28;20370;-86
2022/04/05 02:52:56;;;;;;;8.90;8.10;;;4.50;99.90;;;;;;5100955;28;20990;-86
2022/04/05 02:55:22;;;;;;;9.85;8.18;;;5.50;99.90;;;;;;5082407;28;20398;-86
2022/04/05 02:57:49;;;;;;;8.55;7.85;;;4.40;99.90;;;;;;5100936;28;20439;-86
2022/04/05 03:00:17;;;;;;;9.43;8.63;;;4.40;99.90;;;;;;5101660;28;20440;-86
2022/04/05 03:02:43;;;;;;;9.70;8.70;;;4.30;99.90;;;;;;5100833;28;20386;-86
2022/04/05 03:05:10;;;;;;;8.77;7.97;;;4.30;99.90;;;;;;5083026;28;20409;-86
2022/04/05 03:07:37;;;;;;;8.80;8.10;;;4.30;99.90;;;;;;5110245;28;20372;-86
2022/04/05 03:10:09;;;;;;;8.90;8.10;;;4.30;99.90;;;;;;5084450;28;20725;-85
2022/04/05 03:12:35;;;;;;;9.18;8.40;;;4.40;99.90;;;;;;5100504;28;20382;-85
2022/04/05 03:15:06;;;;;;;9.38;8.50;;;4.40;99.90;;;;;;5100827;28;20474;-86
2022/04/05 03:17:32;;;;;;;9.18;8.48;;;4.40;99.90;;;;;;5101426;28;20434;-86
2022/04/05 03:19:59;;;;;;;9.80;8.90;;;4.40;99.90;;;;;;5101117;28;20388;-86
2022/04/05 03:22:25;;;;;;;9.50;8.77;;;4.50;99.90;;;;;;5082865;28;20401;-85
2022/04/05 03:24:51;;;;;;;9.90;9.10;;;4.40;99.90;;;;;;5100350;28;20406;-85
2022/04/05 03:27:17;;;;;;;10.48;9.57;;;4.20;99.90;;;;;;5099307;28;20382;-85
2022/04/05 03:29:42;;;;;;;10.00;9.20;;;4.30;99.90;;;;;;5099595;28;20484;-86
2022/04/05 03:32:11;;;;;;;10.07;9.27;;;4.10;99.90;;;;;;5100015;28;20386;-86
2022/04/05 03:34:37;;;;;;;10.50;9.60;;;4.10;99.90;;;;;;5099478;28;20390;-86
2022/04/05 03:37:03;;;;;;;11.05;10.05;;;4.20;99.90;;;;;;5099450;28;20412;-86
2022/04/05 03:39:29;;;;;;;10.40;9.55;;;4.10;99.90;;;;;;5081627;28;20416;-87
2022/04/05 03:41:55;;;;;;;10.30;9.40;;;4.10;99.90;;;;;;5099416;28;20443;-86
2022/04/05 03:44:20;;;;;;;10.32;9.52;;;4.00;99.90;;;;;;5099479;28;20958;-86
2022/04/05 03:46:47;;;;;;;10.45;9.45;;;4.20;99.90;;;;;;5081828;28;20394;-87
2022/04/05 03:49:13;;;;;;;10.23;9.27;;;4.20;99.90;;;;;;5099998;28;20374;-86
2022/04/05 03:51:38;;;;;;;9.77;8.98;;;4.70;99.90;;;;;;5100117;28;20382;-87
2022/04/05 03:54:04;;;;;;;9.45;8.70;;;4.30;99.90;;;;;;5100531;28;20873;-87
2022/04/05 03:56:30;;;;;;;9.80;9.10;;;4.40;99.90;;;;;;5099900;28;20734;-86
2022/04/05 03:58:56;;;;;;;9.95;9.15;;;4.30;99.90;;;;;;5100369;28;20374;-87
2022/04/05 04:01:21;;;;;;;10.45;9.57;;;4.10;99.90;;;;;;5100153;28;20385;-86
2022/04/05 04:03:47;;;;;;;10.45;9.65;;;4.20;99.90;;;;;;5098970;28;20453;-86
2022/04/05 04:06:12;;;;;;;10.40;9.55;;;4.20;99.90;;;;;;5099889;28;20394;-87
2022/04/05 04:08:38;;;;;;;10.57;9.68;;;4.20;99.90;;;;;;5098481;28;20890;-86
2022/04/05 04:11:04;;;;;;;10.48;9.52;;;4.10;99.90;;;;;;5099162;28;20378;-86
2022/04/05 04:13:30;;;;;;;10.50;9.52;;;4.10;99.90;;;;;;5098701;28;20410;-86
2022/04/05 04:15:59;;;;;;;11.38;10.38;;;4.20;99.90;;;;;;5090565;28;20382;-86
2022/04/05 04:18:24;;;;;;;9.98;9.07;;;4.30;99.90;;;;;;5102914;28;20418;-86
2022/04/05 04:20:50;;;;;;;10.75;9.93;;;4.60;99.90;;;;;;5088267;28;20382;-86
2022/04/05 04:23:16;;;;;;;10.00;9.07;;;4.30;99.90;;;;;;5096430;28;20420;-86
2022/04/05 04:25:42;;;;;;;10.27;9.20;;;4.30;99.90;;;;;;5101474;28;20959;-85
2022/04/05 04:28:09;;;;;;;9.20;8.40;;;4.50;99.90;;;;;;5101141;28;20370;-85
2022/04/05 04:30:36;;;;;;;8.77;8.07;;;4.50;99.90;;;;;;5100863;28;20393;-85
2022/04/05 04:33:02;;;;;;;8.88;8.07;;;4.50;99.90;;;;;;5083598;28;20383;-85
2022/04/05 04:35:28;;;;;;;8.95;7.88;;;4.40;99.90;;;;;;5100905;28;20402;-85
2022/04/05 04:37:55;;;;;;;8.73;8.02;;;4.40;99.90;;;;;;5101217;28;20802;-86
2022/04/05 04:40:21;;;;;;;8.60;7.80;;;4.40;99.90;;;;;;5101720;28;20390;-86
2022/04/05 04:42:47;;;;;;;8.18;7.55;;;4.20;99.90;;;;;;5083052;28;20410;-85
2022/04/05 04:45:13;;;;;;;8.67;7.70;;;5.20;99.90;;;;;;5083225;28;20509;-86
2022/04/05 04:47:39;;;;;;;8.27;7.57;;;4.20;99.90;;;;;;5101441;28;20378;-85
2022/04/05 04:50:06;;;;;;;8.15;7.45;;;4.40;99.90;;;;;;5101069;28;20390;-86
2022/04/05 04:52:32;;;;;;;8.63;7.85;;;4.30;99.90;;;;;;5101549;28;20798;-85
2022/04/05 04:54:58;;;;;;;8.17;7.47;;;4.30;99.90;;;;;;5101294;28;20382;-85
2022/04/05 04:57:25;;;;;;;6.97;6.38;;;4.60;99.90;;;;;;5100779;28;20385;-86
2022/04/05 04:59:51;;;;;;;7.25;6.55;;;4.50;99.90;;;;;;5101267;28;20739;-85
2022/04/05 05:02:17;;;;;;;6.90;6.40;;;4.40;99.90;;;;;;5102322;28;20382;-86
2022/04/05 05:04:42;;;;;;;7.18;6.57;;;4.50;99.90;;;;;;5102370;28;20459;-85
2022/04/05 05:07:08;;;;;;;7.47;6.87;;;4.40;99.90;;;;;;5100256;28;20380;-86
2022/04/05 05:09:34;;;;;;;7.77;7.13;;;4.30;99.90;;;;;;5100531;28;20374;-85
2022/04/05 05:12:00;;;;;;;8.13;7.33;;;4.70;99.90;;;;;;5099544;28;20370;-85
2022/04/05 05:14:30;;;;;;;8.07;7.28;;;4.30;99.90;;;;;;5099318;28;20374;-85
2022/04/05 05:16:56;;;;;;;8.00;7.32;;;4.30;99.90;;;;;;5099040;28;20419;-85
2022/04/05 05:19:21;;;;;;;7.97;7.27;;;4.90;99.90;;;;;;5079448;28;20382;-85
2022/04/05 05:21:48;;;;;;;7.97;7.23;;;4.30;99.90;;;;;;5099354;28;20451;-84
2022/04/05 05:24:13;;;;;;;7.93;7.22;;;4.40;99.90;;;;;;5100843;28;20531;-84
2022/04/05 05:26:39;;;;;;;7.50;6.90;;;4.50;99.90;;;;;;5099426;28;20436;-84
2022/04/05 05:29:05;;;;;;;7.47;6.77;;;4.50;99.90;;;;;;5100836;28;20381;-83
2022/04/05 05:31:31;;;;;;;7.13;6.53;;;4.50;99.90;;;;;;5105089;28;20374;-84
2022/04/05 05:33:56;;;;;;;7.53;6.82;;;4.60;99.90;;;;;;5104546;28;20498;-83
2022/04/05 05:36:22;;;;;;;7.63;6.83;;;4.50;99.90;;;;;;5104561;28;20443;-82
2022/04/05 05:38:48;;;;;;;8.00;7.30;;;4.50;99.90;;;;;;5103230;28;20386;-82
2022/04/05 05:41:14;;;;;;;8.20;7.43;;;4.50;99.90;;;;;;5103594;28;20405;-83
2022/04/05 05:43:41;;;;;;;8.57;7.70;;;4.60;99.90;;;;;;5103527;28;21013;-82
2022/04/05 05:46:06;;;;;;;8.20;7.50;;;4.50;99.90;;;;;;5103938;28;20658;-83
2022/04/05 05:48:33;;;;;;;8.55;7.75;;;4.50;99.90;;;;;;5104673;28;20378;-84
2022/04/05 05:50:59;;;;;;;8.10;7.35;;;4.50;99.90;;;;;;5103263;28;20864;-85
2022/04/05 05:53:25;;;;;;;8.70;7.90;;;4.50;99.90;;;;;;5102803;28;20377;-85
2022/04/05 05:55:51;;;;;;;8.60;7.90;;;4.40;99.90;;;;;;5103509;28;20540;-83
2022/04/05 05:58:17;;;;;;;9.02;7.57;;;4.50;99.90;;;;;;5085525;28;20389;-85
2022/04/05 06:00:43;;;;;;;8.52;7.82;;;4.40;99.90;;;;;;5103901;28;20390;-85
2022/04/05 06:03:10;;;;;;;8.70;7.90;;;4.40;99.90;;;;;;5103820;28;20389;-85
2022/04/05 06:05:36;;;;;;;8.50;7.70;;;4.50;99.90;;;;;;5086257;28;20570;-84
2022/04/05 06:08:04;;;;;;;8.48;7.68;;;4.40;99.90;;;;;;5084240;28;21018;-85
2022/04/05 06:10:30;;;;;;;8.55;7.75;;;4.40;99.90;;;;;;5102647;28;20815;-85
2022/04/05 06:12:57;;;;;;;8.77;7.88;;;4.40;99.90;;;;;;5084635;28;20405;-85
2022/04/05 06:15:25;;;;;;;9.15;8.30;;;4.40;99.90;;;;;;5082455;28;20380;-85
2022/04/05 06:17:51;;;;;;;8.32;7.55;;;4.30;99.90;;;;;;5095405;28;20401;-84
2022/04/05 06:20:19;;;;;;;9.30;8.00;;;4.40;99.90;;;;;;5102486;28;20389;-85
2022/04/05 06:23:00;;;;;;;7.97;7.28;;;4.40;99.90;;;;;;5104585;28;20844;-85
2022/04/05 06:25:29;;;;;;;8.30;7.50;;;4.40;99.90;;;;;;5102637;28;20453;-85
2022/04/05 06:27:56;;;;;;;8.80;8.00;;;5.20;99.90;;;;;;5101031;28;20734;-85
2022/04/05 06:30:22;;;;;;;8.45;7.65;;;4.40;99.90;;;;;;5081629;28;20775;-85
2022/04/05 06:32:48;;;;;;;7.85;7.15;;;4.40;99.90;;;;;;5092949;28;20414;-85
2022/04/05 06:35:14;;;;;;;8.13;7.43;;;4.80;99.90;;;;;;5100214;28;20375;-85
2022/04/05 06:37:45;;;;;;;8.30;7.53;;;4.80;99.90;;;;;;5104426;28;20394;-85
2022/04/05 06:40:13;;;;;;;8.95;8.05;;;4.40;99.90;;;;;;5103597;28;20398;-85
2022/04/05 06:42:43;;;;;;;8.15;7.38;;;4.40;99.90;;;;;;5102622;28;20382;-85
2022/04/05 06:45:14;;;;;;;8.25;7.50;;;4.40;99.90;;;;;;5104502;28;20409;-85
2022/04/05 06:47:39;;;;;;;8.18;7.38;;;4.40;99.90;;;;;;5106570;28;20412;-85
2022/04/05 06:50:07;;;;;;;7.50;6.72;;;4.40;99.90;;;;;;5106215;28;20389;-85
2022/04/05 06:52:37;;;;;;;6.53;5.95;;;4.40;99.90;;;;;;5105284;28;20390;-85
2022/04/05 06:55:03;;;;;;;6.80;6.15;;;4.40;99.90;;;;;;5104822;28;20408;-85
2022/04/05 06:57:29;;;;;;;6.65;6.15;;;4.40;99.90;;;;;;5104668;28;20423;-85
2022/04/05 06:59:54;;;;;;;6.25;5.75;;;4.50;99.90;;;;;;5106502;28;20382;-85
2022/04/05 07:02:20;;;;;;;6.40;5.90;;;4.50;99.90;;;;;;5085896;28;20401;-86
2022/04/05 07:04:46;;;;;;;7.37;6.67;;;4.90;99.90;;;;;;5096584;28;20406;-86
2022/04/05 07:07:11;;;;;;;6.90;6.30;;;4.50;99.90;;;;;;5102618;28;20374;-85
2022/04/05 07:09:37;;;;;;;6.50;5.90;;;4.60;99.90;;;;;;5100683;28;20388;-85
2022/04/05 07:12:03;;;;;;;6.47;5.87;;;4.60;99.90;;;;;;5100893;28;20876;-85
2022/04/05 07:14:29;;;;;;;8.80;5.88;;;4.60;99.90;;;;;;5099772;28;20417;-85
2022/04/05 07:16:54;;;;;;;6.07;5.50;;;4.60;99.90;;;;;;5100132;28;20757;-87
2022/04/05 07:19:20;;;;;;;5.70;5.20;;;4.60;99.90;;;;;;5099911;28;20390;-86
2022/04/05 07:21:46;;;;;;;6.60;5.50;;;4.60;99.90;;;;;;5096967;28;20381;-86
2022/04/05 07:24:11;;;;;;;6.10;5.50;;;4.70;99.90;;;;;;5087616;28;20406;-86
2022/04/05 07:26:37;;;;;;;5.87;5.37;;;4.70;99.90;;;;;;5096972;28;20386;-86
2022/04/05 07:29:03;;;;;;;5.93;5.20;;;4.90;99.90;;;;;;5100971;28;20402;-86
2022/04/05 07:31:28;;;;;;;6.00;4.87;;;4.90;99.90;;;;;;5098015;28;20390;-86
2022/04/05 07:33:54;;;;;;;5.65;4.97;;;4.90;99.90;;;;;;5101660;28;20400;-86
2022/04/05 07:36:20;;;;;;;5.20;4.72;;;4.90;99.90;;;;;;5085173;28;20441;-86
2022/04/05 07:38:45;;;;;;;4.88;4.47;;;5.00;99.90;;;;;;5101916;28;20386;-86
2022/04/05 07:41:11;;;;;;;4.90;4.50;;;5.10;99.90;;;;;;5102796;28;20473;-86
2022/04/05 07:43:36;;;;;;;5.20;4.70;;;5.00;99.90;;;;;;5101963;28;20378;-85
2022/04/05 07:46:02;;;;;;;8.02;5.13;;;5.10;99.90;;;;;;5101289;28;20424;-86
2022/04/05 07:48:28;;;;;;;5.93;5.32;;;5.10;99.90;;;;;;5100883;28;20412;-86
2022/04/05 07:50:54;;;;;;;6.00;5.50;;;5.10;99.90;;;;;;5102514;28;20389;-86
2022/04/05 07:53:20;;;;;;;6.22;5.63;;;5.30;99.90;;;;;;5082398;28;20418;-85
2022/04/05 07:55:46;;;;;;;7.35;6.15;;;5.20;99.90;;;;;;5102443;28;20398;-86
2022/04/05 07:58:11;;;;;;;8.40;7.40;;;5.20;99.90;;;;;;5094349;28;20739;-86
2022/04/05 08:00:37;;;;;;;7.17;6.47;;;5.20;99.90;;;;;;5097792;28;20418;-86
2022/04/05 08:03:03;;;;;;;7.70;6.63;;;5.30;99.90;;;;;;5101952;28;20483;-85
2022/04/05 08:05:29;;;;;;;7.63;6.93;;;5.30;99.90;;;;;;5082103;28;20920;-86
2022/04/05 08:07:55;;;;;;;7.27;6.67;;;5.30;99.90;;;;;;5099391;28;20394;-86
2022/04/05 08:10:22;;;;;;;7.55;6.82;;;5.40;99.90;;;;;;5098751;28;20394;-85
2022/04/05 08:12:49;;;;;;;7.40;6.70;;;5.40;99.90;;;;;;5090871;28;20453;-86
2022/04/05 08:15:23;;;;;;;7.05;6.20;;;5.50;99.90;;;;;;5100196;28;20394;-85
2022/04/05 08:17:50;;;;;;;7.23;6.53;;;5.50;99.90;;;;;;5101628;28;20384;-84
2022/04/05 08:20:16;;;;;;;7.18;6.45;;;6.00;99.90;;;;;;5096926;28;20741;-86
2022/04/05 08:22:42;;;;;;;7.30;6.60;;;5.60;99.90;;;;;;5097929;28;20390;-85
2022/04/05 08:25:09;;;;;;;6.93;6.30;;;5.60;99.90;;;;;;5098795;28;20485;-85
2022/04/05 08:27:36;;;;;;;7.07;6.43;;;5.70;99.90;;;;;;5098138;28;20381;-85
2022/04/05 08:30:04;;;;;;;7.47;6.53;;;5.70;99.90;;;;;;5098521;28;20381;-85
2022/04/05 08:32:29;;;;;;;7.05;6.45;;;5.80;99.90;;;;;;5097420;28;20459;-86
2022/04/05 08:34:55;;;;;;;7.70;7.00;;;5.90;99.90;;;;;;5098110;28;20386;-87
2022/04/05 08:37:22;;;;;;;9.87;7.53;;;6.00;99.90;;;;;;5098510;28;20373;-86
2022/04/05 08:39:48;;;;;;;7.93;7.13;;;6.00;99.90;;;;;;5098880;28;20378;-86
2022/04/05 08:42:15;;;;;;;7.50;6.73;;;6.10;99.90;;;;;;5080182;28;20378;-86
2022/04/05 08:44:43;;;;;;;8.23;7.37;;;6.20;99.90;;;;;;5078309;28;20398;-86
2022/04/05 08:47:12;;;;;;;8.07;7.30;;;6.20;99.90;;;;;;5097877;28;20756;-86
2022/04/05 08:49:38;;;;;;;8.50;7.63;;;6.30;99.90;;;;;;5098935;28;20457;-86
2022/04/05 08:52:05;;;;;;;7.78;7.05;;;6.50;99.90;;;;;;5097967;28;20390;-86
2022/04/05 08:54:31;;;;;;;8.30;7.40;;;6.60;99.90;;;;;;5096817;28;20398;-86
2022/04/05 08:56:56;;;;;;;8.03;7.33;;;6.70;99.90;;;;;;5101056;28;20422;-87
2022/04/05 08:59:22;;;;;;;7.93;7.07;;;6.90;99.90;;;;;;5085013;28;20421;-86
2022/04/05 09:01:50;;;;;;;7.67;6.83;;;6.90;99.90;;;;;;5101287;28;20385;-86
2022/04/05 09:04:15;;;;;;;7.03;6.40;;;7.00;99.90;;;;;;5114982;28;20388;-86
2022/04/05 09:06:41;;;;;;;7.37;6.67;;;7.10;99.90;;;;;;5100768;28;20381;-86
2022/04/05 09:09:10;;;;;;;7.47;6.87;;;7.30;99.90;;;;;;5099527;28;20393;-86
2022/04/05 09:11:43;;;;;;;7.40;6.70;;;7.30;99.90;;;;;;5079660;28;20417;-86
2022/04/05 09:14:09;;;;;;;7.82;7.13;;;7.40;99.90;;;;;;5099294;28;20710;-87
2022/04/05 09:16:36;;;;;;;8.82;7.90;;;7.50;99.90;;;;;;5099154;28;20393;-86
2022/04/05 09:19:10;;;;;;;8.60;7.30;;;7.70;99.90;;;;;;5099048;28;20378;-84
2022/04/05 09:21:57;;;;;;;8.30;7.50;;;7.80;99.90;;;;;;5098804;28;20382;-86
2022/04/05 09:24:37;;;;;;;7.93;7.22;;;8.40;99.90;;;;;;5098689;28;20374;-86
2022/04/05 09:27:04;;;;;;;7.82;7.13;;;7.90;99.90;;;;;;5092780;28;20423;-86
2022/04/05 09:29:42;;;;;;;7.60;6.90;;;7.70;99.90;;;;;;5099139;28;20378;-86
2022/04/05 09:32:08;;;;;;;8.32;7.53;;;7.90;99.90;;;;;;5098590;28;20453;-87
2022/04/05 09:34:50;;;;;;;8.23;7.45;;;7.80;99.90;;;;;;5099155;28;20390;-85
2022/04/05 09:37:23;;;;;;;8.07;7.38;;;8.60;99.90;;;;;;5101039;28;20871;-86
2022/04/05 09:39:49;;;;;;;8.80;7.75;;;8.00;99.90;;;;;;5098120;28;20394;-85
2022/04/05 09:42:14;;;;;;;8.10;7.30;;;7.70;99.90;;;;;;5078843;28;20444;-84
2022/04/05 09:44:42;;;;;;;7.70;6.90;;;7.70;99.90;;;;;;5064622;28;20474;-88
2022/04/05 09:47:17;;;;;;;7.90;7.20;;;7.80;99.90;;;;;;5100201;28;20853;-87
2022/04/05 09:49:45;;;;;;;7.63;7.03;;;7.80;99.90;;;;;;5099110;28;20481;-85
2022/04/05 09:52:33;;;;;;;7.90;7.20;;;8.50;99.90;;;;;;5101331;28;20398;-85
2022/04/05 09:55:14;;;;;;;8.10;7.40;;;8.00;99.90;;;;;;5092320;28;20845;-84
2022/04/05 09:57:40;;;;;;;9.38;7.40;;;8.10;99.90;;;;;;5081904;28;20809;-85
2022/04/05 10:00:12;;;;;;;7.97;7.28;;;8.10;99.90;;;;;;5102156;28;20733;-83
2022/04/05 10:03:00;;;;;;;7.93;7.10;;;8.10;99.90;;;;;;5100874;28;20816;-84
2022/04/05 10:05:28;;;;;;;7.83;7.10;;;8.10;99.90;;;;;;5097761;28;20405;-86
2022/04/05 10:07:54;;;;;;;7.78;7.07;;;8.00;99.90;;;;;;5080230;28;20382;-85
2022/04/05 10:10:21;;;;;;;7.80;7.20;;;8.00;99.90;;;;;;5098541;28;20373;-85
2022/04/05 10:12:47;;;;;;;10.30;7.10;;;7.90;99.90;;;;;;5091405;28;20478;-86
2022/04/05 10:15:13;;;;;;;8.57;7.50;;;8.10;99.90;;;;;;5081975;28;20431;-86
2022/04/05 10:17:45;;;;;;;7.80;7.05;;;8.40;99.90;;;;;;5091607;28;20381;-86
2022/04/05 10:20:12;;;;;;;7.43;6.72;;;8.10;99.90;;;;;;5102050;28;20453;-85
2022/04/05 10:22:40;;;;;;;7.80;7.10;;;8.20;99.90;;;;;;5099347;28;20381;-85
2022/04/05 10:25:07;;;;;;;8.45;7.63;;;9.10;99.90;;;;;;5102041;28;20425;-85
2022/04/05 10:27:33;;;;;;;8.27;7.50;;;8.40;99.90;;;;;;5084146;28;20379;-86
2022/04/05 10:30:05;;;;;;;8.43;6.70;;;8.60;99.90;;;;;;5082780;28;20376;-86
2022/04/05 10:32:38;;;;;;;7.30;6.60;;;8.60;99.90;;;;;;5083445;28;20371;-87
2022/04/05 10:35:07;;;;;;;7.63;6.83;;;8.60;99.90;;;;;;5086659;28;20386;-86
2022/04/05 10:37:37;;;;;;;7.85;7.13;;;8.80;99.90;;;;;;5088787;28;20401;-85
2022/04/05 10:40:03;;;;;;;7.47;6.78;;;8.90;99.90;;;;;;5087539;28;20391;-85
2022/04/05 10:42:36;;;;;;;7.15;6.55;;;9.00;99.90;;;;;;5087829;28;20411;-86
2022/04/05 10:45:33;;;;;;;8.00;7.20;;;9.10;99.90;;;;;;5081105;28;20395;-87
2022/04/05 10:48:18;;;;;;;6.90;6.20;;;9.30;99.90;;;;;;5080653;28;20385;-86
2022/04/05 10:50:47;;;;;;;7.00;6.40;;;9.40;99.90;;;;;;5092465;28;20451;-87
2022/04/05 10:53:21;;;;;;;6.75;6.15;;;9.20;99.90;;;;;;5085141;28;20374;-85
2022/04/05 10:56:14;;;;;;;8.38;6.50;;;9.20;99.90;;;;;;5099115;28;20447;-85
2022/04/05 10:58:54;;;;;;;7.07;5.72;;;9.50;99.90;;;;;;5090422;28;20386;-87
2022/04/05 11:01:43;;;;;;;7.90;5.88;;;9.80;99.90;;;;;;5089504;28;20466;-86
2022/04/05 11:04:12;;;;;;;6.35;5.82;;;9.70;99.90;;;;;;5089078;28;20375;-87
2022/04/05 11:07:01;;;;;;;6.40;5.80;;;9.90;99.90;;;;;;5092334;28;20406;-86
2022/04/05 11:09:53;;;;;;;7.00;6.30;;;9.70;99.90;;;;;;5082789;28;20462;-86
2022/04/05 11:12:26;;;;;;;8.03;6.13;;;9.90;99.90;;;;;;5091691;28;20787;-86
2022/04/05 11:14:58;;;;;;;6.60;6.10;;;9.80;99.90;;;;;;5089875;28;20848;-86
2022/04/05 11:17:27;;;;;;;6.95;5.80;;;9.60;99.90;;;;;;5095621;28;20376;-86
2022/04/05 11:19:57;;;;;;;5.78;5.28;;;9.80;99.90;;;;;;5087348;28;20743;-87
2022/04/05 11:22:23;;;;;;;9.00;5.80;;;9.90;99.90;;;;;;5096426;28;20432;-87
2022/04/05 11:25:06;;;;;;;5.60;5.10;;;10.30;99.90;;;;;;5086513;28;20894;-86
2022/04/05 11:27:47;;;;;;;6.05;5.45;;;10.10;99.90;;;;;;5090653;28;20457;-86
2022/04/05 11:30:26;;;;;;;5.63;5.13;;;10.80;99.90;;;;;;5091928;28;20387;-86
2022/04/05 11:33:13;;;;;;;7.95;5.40;;;10.20;99.90;;;;;;5093144;28;20918;-87
2022/04/05 11:36:02;;;;;;;6.47;5.05;;;10.10;99.90;;;;;;5087830;28;20393;-87
2022/04/05 11:38:29;;;;;;;5.63;5.10;;;10.30;99.90;;;;;;5089333;28;20375;-87
2022/04/05 11:41:08;;;;;;;5.60;5.00;;;10.20;99.90;;;;;;5087378;28;20474;-86
2022/04/05 11:43:36;;;;;;;6.90;5.72;;;10.30;99.90;;;;;;5096928;28;20449;-86
2022/04/05 11:46:06;;;;;;;6.90;5.50;;;10.30;99.90;;;;;;5098533;28;20409;-85
2022/04/05 11:48:33;;;;;;;6.40;5.80;;;10.40;99.90;;;;;;5107543;28;20472;-85
2022/04/05 11:51:01;;;;;;;6.35;5.80;;;10.30;99.90;;;;;;5097266;28;20384;-86
2022/04/05 11:53:31;;;;;;;6.40;5.90;;;10.60;99.90;;;;;;5113407;28;20396;-86
2022/04/05 11:56:20;;;;;;;6.88;6.28;;;10.90;99.90;;;;;;5075968;28;20404;-86
2022/04/05 11:58:53;;;;;;;7.25;6.75;;;11.00;99.90;;;;;;5097359;28;20378;-86
2022/04/05 12:01:34;;;;;;;6.20;5.70;;;11.30;99.90;;;;;;5110831;28;20383;-85
2022/04/05 12:04:11;;;;;;;7.13;6.07;;;11.60;99.90;;;;;;5100595;28;20780;-87
2022/04/05 12:06:40;;;;;;;8.02;7.32;;;12.40;99.90;;;;;;5079996;28;20406;-86
2022/04/05 12:09:11;;;;;;;6.32;5.80;;;11.50;99.90;;;;;;5081855;28;20386;-86
2022/04/05 12:11:39;;;;;;;6.32;5.82;;;11.40;99.90;;;;;;5109889;28;20454;-86
2022/04/05 12:14:09;;;;;;;5.93;5.43;;;11.60;99.90;;;;;;5113385;28;20386;-85
2022/04/05 12:16:58;;;;;;;5.30;4.80;;;11.60;99.90;;;;;;5080648;28;20457;-86
2022/04/05 12:19:36;;;;;;;5.53;5.13;;;11.80;99.90;;;;;;5102636;28;20448;-86
2022/04/05 12:22:08;;;;;;;5.20;4.63;;;11.70;99.90;;;;;;5096995;28;20472;-86
2022/04/05 12:24:35;;;;;;;5.20;4.70;;;11.70;99.90;;;;;;5090702;28;20380;-86
2022/04/05 12:27:03;;;;;;;4.60;4.10;;;11.60;99.90;;;;;;5068079;28;20390;-87
2022/04/05 12:29:31;;;;;;;5.47;4.63;;;11.50;99.90;;;;;;5099924;28;20374;-87
2022/04/05 12:32:08;;;;;;;6.80;4.80;;;11.40;99.90;;;;;;5097630;28;20386;-87
2022/04/05 12:34:34;;;;;;;4.90;4.43;;;11.60;99.90;;;;;;5109205;28;20373;-87
2022/04/05 12:37:02;;;;;;;4.93;4.43;;;11.80;99.90;;;;;;5105260;28;20404;-86
2022/04/05 12:39:30;;;;;;;4.95;4.45;;;11.70;99.90;;;;;;5099205;28;20444;-87
2022/04/05 12:42:00;;;;;;;5.38;4.20;;;11.80;99.90;;;;;;5107078;28;20820;-87
2022/04/05 12:44:34;;;;;;;5.00;4.13;;;12.00;99.90;;;;;;5109548;28;20402;-86
2022/04/05 12:47:12;;;;;;;5.20;3.92;;;12.40;99.90;;;;;;5110924;28;20390;-87
2022/04/05 12:49:49;;;;;;;4.67;4.27;;;12.60;99.90;;;;;;5131240;27;20416;-87
2022/04/05 12:52:23;;;;;;;4.95;4.18;;;12.40;99.90;;;;;;5126868;28;20419;-85
2022/04/05 12:54:56;;;;;;;4.05;3.40;;;12.30;99.90;;;;;;5126650;28;20411;-86
2022/04/05 12:57:24;;;;;;;3.72;3.08;;;12.10;99.90;;;;;;5105051;28;20400;-85
2022/04/05 12:59:53;;;;;;;3.15;2.92;;;12.00;99.90;;;;;;5102912;28;20439;-87
2022/04/05 13:02:27;;;;;;;4.65;3.30;;;11.30;99.90;;;;;;5085523;28;20441;-86